sensor_id;sensor_type;location;lat;lon;timestamp;P1;durP1;ratioP1;P2;durP2;ratioP2
36789;SDS011;22740;52.182;8.780;2024-01-15T00:05:19;293.65;;;274.65;;
36789;SDS011;22740;52.182;8.780;2024-01-15T00:11:21;296.10;;;277.20;;
36789;SDS011;22740;52.182;8.780;2024-01-15T00:17:23;284.30;;;265.42;;
36789;SDS011;22740;52.182;8.780;2024-01-15T00:23:25;286.77;;;268.00;;
36789;SDS011;22740;52.182;8.780;2024-01-15T00:29:27;262.58;;;245.18;;
36789;SDS011;22740;52.182;8.780;2024-01-15T00:35:29;252.23;;;235.70;;
36789;SDS011;22740;52.182;8.780;2024-01-15T00:41:31;255.55;;;238.68;;
36789;SDS011;22740;52.182;8.780;2024-01-15T00:47:33;232.88;;;217.57;;
36789;SDS011;22740;52.182;8.780;2024-01-15T00:53:36;240.43;;;224.60;;
36789;SDS011;22740;52.182;8.780;2024-01-15T00:59:38;237.23;;;222.15;;
36789;SDS011;22740;52.182;8.780;2024-01-15T01:05:40;206.77;;;192.80;;
36789;SDS011;22740;52.182;8.780;2024-01-15T01:11:42;195.15;;;182.00;;
36789;SDS011;22740;52.182;8.780;2024-01-15T01:17:44;174.80;;;162.98;;
36789;SDS011;22740;52.182;8.780;2024-01-15T01:23:46;156.32;;;145.93;;
36789;SDS011;22740;52.182;8.780;2024-01-15T01:29:48;151.00;;;140.90;;
36789;SDS011;22740;52.182;8.780;2024-01-15T01:35:50;144.75;;;134.88;;
36789;SDS011;22740;52.182;8.780;2024-01-15T01:41:51;134.25;;;125.53;;
36789;SDS011;22740;52.182;8.780;2024-01-15T01:47:53;139.15;;;130.00;;
36789;SDS011;22740;52.182;8.780;2024-01-15T01:53:55;123.75;;;115.88;;
36789;SDS011;22740;52.182;8.780;2024-01-15T01:59:57;118.35;;;110.57;;
36789;SDS011;22740;52.182;8.780;2024-01-15T02:06:00;118.55;;;110.95;;
36789;SDS011;22740;52.182;8.780;2024-01-15T02:12:02;132.73;;;123.82;;
36789;SDS011;22740;52.182;8.780;2024-01-15T02:18:05;122.55;;;114.75;;
36789;SDS011;22740;52.182;8.780;2024-01-15T02:24:09;118.40;;;110.90;;
36789;SDS011;22740;52.182;8.780;2024-01-15T02:30:12;112.45;;;105.50;;
36789;SDS011;22740;52.182;8.780;2024-01-15T02:36:14;114.47;;;107.18;;
36789;SDS011;22740;52.182;8.780;2024-01-15T02:42:17;124.47;;;116.82;;
36789;SDS011;22740;52.182;8.780;2024-01-15T02:48:19;122.35;;;114.47;;
36789;SDS011;22740;52.182;8.780;2024-01-15T02:54:21;118.05;;;110.80;;
36789;SDS011;22740;52.182;8.780;2024-01-15T03:00:23;120.63;;;112.95;;
36789;SDS011;22740;52.182;8.780;2024-01-15T03:06:25;117.88;;;110.35;;
36789;SDS011;22740;52.182;8.780;2024-01-15T03:12:27;119.18;;;111.10;;
36789;SDS011;22740;52.182;8.780;2024-01-15T03:18:29;119.95;;;111.68;;
36789;SDS011;22740;52.182;8.780;2024-01-15T03:24:31;114.35;;;107.00;;
36789;SDS011;22740;52.182;8.780;2024-01-15T03:30:33;142.82;;;133.52;;
36789;SDS011;22740;52.182;8.780;2024-01-15T03:36:35;159.43;;;148.73;;
36789;SDS011;22740;52.182;8.780;2024-01-15T03:42:37;145.55;;;135.98;;
36789;SDS011;22740;52.182;8.780;2024-01-15T03:48:39;143.75;;;134.38;;
36789;SDS011;22740;52.182;8.780;2024-01-15T03:54:41;126.97;;;118.47;;
36789;SDS011;22740;52.182;8.780;2024-01-15T04:00:43;126.85;;;118.05;;
36789;SDS011;22740;52.182;8.780;2024-01-15T04:06:45;124.18;;;115.75;;
36789;SDS011;22740;52.182;8.780;2024-01-15T04:12:47;122.75;;;114.47;;
36789;SDS011;22740;52.182;8.780;2024-01-15T04:18:49;128.07;;;119.50;;
36789;SDS011;22740;52.182;8.780;2024-01-15T04:24:51;124.63;;;116.55;;
36789;SDS011;22740;52.182;8.780;2024-01-15T04:30:53;119.93;;;111.90;;
36789;SDS011;22740;52.182;8.780;2024-01-15T04:36:55;124.25;;;115.80;;
36789;SDS011;22740;52.182;8.780;2024-01-15T04:42:57;108.85;;;101.80;;
36789;SDS011;22740;52.182;8.780;2024-01-15T04:48:59;117.72;;;109.72;;
36789;SDS011;22740;52.182;8.780;2024-01-15T04:55:01;123.43;;;115.13;;
36789;SDS011;22740;52.182;8.780;2024-01-15T05:01:03;110.70;;;102.95;;
36789;SDS011;22740;52.182;8.780;2024-01-15T05:07:05;106.50;;;98.93;;
36789;SDS011;22740;52.182;8.780;2024-01-15T05:13:07;103.68;;;96.18;;
36789;SDS011;22740;52.182;8.780;2024-01-15T05:19:09;106.97;;;99.53;;
36789;SDS011;22740;52.182;8.780;2024-01-15T05:25:11;104.03;;;96.93;;
36789;SDS011;22740;52.182;8.780;2024-01-15T05:31:13;110.00;;;102.22;;
36789;SDS011;22740;52.182;8.780;2024-01-15T05:37:15;106.88;;;99.40;;
36789;SDS011;22740;52.182;8.780;2024-01-15T05:43:16;118.63;;;110.22;;
36789;SDS011;22740;52.182;8.780;2024-01-15T05:49:18;118.00;;;109.97;;
36789;SDS011;22740;52.182;8.780;2024-01-15T05:55:20;114.55;;;106.75;;
36789;SDS011;22740;52.182;8.780;2024-01-15T06:01:22;110.35;;;102.78;;
36789;SDS011;22740;52.182;8.780;2024-01-15T06:07:24;132.88;;;123.60;;
36789;SDS011;22740;52.182;8.780;2024-01-15T06:13:26;175.38;;;163.57;;
36789;SDS011;22740;52.182;8.780;2024-01-15T06:19:28;145.43;;;135.13;;
36789;SDS011;22740;52.182;8.780;2024-01-15T06:25:30;130.50;;;121.40;;
36789;SDS011;22740;52.182;8.780;2024-01-15T06:31:32;141.25;;;131.85;;
36789;SDS011;22740;52.182;8.780;2024-01-15T06:37:34;121.25;;;112.95;;
36789;SDS011;22740;52.182;8.780;2024-01-15T06:43:36;123.43;;;114.72;;
36789;SDS011;22740;52.182;8.780;2024-01-15T06:49:38;118.93;;;110.47;;
36789;SDS011;22740;52.182;8.780;2024-01-15T06:55:40;172.38;;;160.75;;
36789;SDS011;22740;52.182;8.780;2024-01-15T07:01:42;160.90;;;149.85;;
36789;SDS011;22740;52.182;8.780;2024-01-15T07:07:44;137.38;;;128.18;;
36789;SDS011;22740;52.182;8.780;2024-01-15T07:13:45;127.70;;;119.15;;
36789;SDS011;22740;52.182;8.780;2024-01-15T07:19:47;114.95;;;107.15;;
36789;SDS011;22740;52.182;8.780;2024-01-15T07:25:49;116.25;;;108.30;;
36789;SDS011;22740;52.182;8.780;2024-01-15T07:31:51;111.13;;;103.53;;
36789;SDS011;22740;52.182;8.780;2024-01-15T07:37:54;109.40;;;102.00;;
36789;SDS011;22740;52.182;8.780;2024-01-15T07:43:55;117.60;;;109.53;;
36789;SDS011;22740;52.182;8.780;2024-01-15T07:49:57;112.40;;;104.43;;
36789;SDS011;22740;52.182;8.780;2024-01-15T07:56:06;112.25;;;104.40;;
36789;SDS011;22740;52.182;8.780;2024-01-15T08:02:08;119.72;;;111.45;;
36789;SDS011;22740;52.182;8.780;2024-01-15T08:08:09;120.38;;;112.18;;
36789;SDS011;22740;52.182;8.780;2024-01-15T08:14:11;120.32;;;112.07;;
36789;SDS011;22740;52.182;8.780;2024-01-15T08:20:14;115.82;;;107.95;;
36789;SDS011;22740;52.182;8.780;2024-01-15T08:26:17;103.90;;;96.53;;
36789;SDS011;22740;52.182;8.780;2024-01-15T08:32:19;107.18;;;99.75;;
36789;SDS011;22740;52.182;8.780;2024-01-15T08:38:21;115.32;;;107.45;;
36789;SDS011;22740;52.182;8.780;2024-01-15T08:44:23;115.03;;;107.10;;
36789;SDS011;22740;52.182;8.780;2024-01-15T08:50:25;113.63;;;105.63;;
36789;SDS011;22740;52.182;8.780;2024-01-15T08:56:27;118.85;;;110.35;;
36789;SDS011;22740;52.182;8.780;2024-01-15T09:02:28;117.80;;;109.60;;
36789;SDS011;22740;52.182;8.780;2024-01-15T09:08:30;124.13;;;115.72;;
36789;SDS011;22740;52.182;8.780;2024-01-15T09:14:32;125.10;;;116.65;;
36789;SDS011;22740;52.182;8.780;2024-01-15T09:20:37;119.68;;;111.10;;
36789;SDS011;22740;52.182;8.780;2024-01-15T09:26:39;120.10;;;111.80;;
36789;SDS011;22740;52.182;8.780;2024-01-15T09:32:41;116.53;;;108.30;;
36789;SDS011;22740;52.182;8.780;2024-01-15T09:38:44;119.97;;;111.78;;
36789;SDS011;22740;52.182;8.780;2024-01-15T09:44:45;120.97;;;112.68;;
36789;SDS011;22740;52.182;8.780;2024-01-15T09:50:48;111.05;;;103.75;;
36789;SDS011;22740;52.182;8.780;2024-01-15T09:56:51;99.72;;;92.82;;
36789;SDS011;22740;52.182;8.780;2024-01-15T10:02:53;97.85;;;91.05;;
36789;SDS011;22740;52.182;8.780;2024-01-15T10:08:56;104.72;;;97.38;;
36789;SDS011;22740;52.182;8.780;2024-01-15T10:14:59;104.53;;;97.03;;
36789;SDS011;22740;52.182;8.780;2024-01-15T10:21:02;105.13;;;97.70;;
36789;SDS011;22740;52.182;8.780;2024-01-15T10:27:04;103.88;;;95.65;;
36789;SDS011;22740;52.182;8.780;2024-01-15T10:33:08;108.33;;;100.57;;
36789;SDS011;22740;52.182;8.780;2024-01-15T10:39:10;98.13;;;91.03;;
36789;SDS011;22740;52.182;8.780;2024-01-15T10:51:17;97.40;;;90.78;;
36789;SDS011;22740;52.182;8.780;2024-01-15T10:57:20;101.97;;;95.07;;
36789;SDS011;22740;52.182;8.780;2024-01-15T11:03:23;103.80;;;96.40;;
36789;SDS011;22740;52.182;8.780;2024-01-15T11:09:25;105.38;;;97.55;;
36789;SDS011;22740;52.182;8.780;2024-01-15T11:15:27;105.07;;;97.70;;
36789;SDS011;22740;52.182;8.780;2024-01-15T11:21:30;98.43;;;91.63;;
36789;SDS011;22740;52.182;8.780;2024-01-15T11:27:39;96.70;;;89.97;;
36789;SDS011;22740;52.182;8.780;2024-01-15T11:33:49;97.50;;;91.00;;
36789;SDS011;22740;52.182;8.780;2024-01-15T11:39:55;102.15;;;95.35;;
36789;SDS011;22740;52.182;8.780;2024-01-15T11:45:58;101.00;;;94.32;;
36789;SDS011;22740;52.182;8.780;2024-01-15T11:52:05;94.40;;;87.80;;
36789;SDS011;22740;52.182;8.780;2024-01-15T11:58:08;98.60;;;91.63;;
36789;SDS011;22740;52.182;8.780;2024-01-15T12:04:13;97.40;;;90.50;;
36789;SDS011;22740;52.182;8.780;2024-01-15T12:10:20;99.20;;;92.38;;
36789;SDS011;22740;52.182;8.780;2024-01-15T12:16:22;95.80;;;89.37;;
36789;SDS011;22740;52.182;8.780;2024-01-15T12:22:25;93.32;;;87.03;;
36789;SDS011;22740;52.182;8.780;2024-01-15T12:28:28;90.63;;;84.63;;
36789;SDS011;22740;52.182;8.780;2024-01-15T12:34:30;89.10;;;83.28;;
36789;SDS011;22740;52.182;8.780;2024-01-15T12:40:33;96.25;;;89.70;;
36789;SDS011;22740;52.182;8.780;2024-01-15T12:46:38;92.65;;;86.35;;
36789;SDS011;22740;52.182;8.780;2024-01-15T12:52:40;90.05;;;83.93;;
36789;SDS011;22740;52.182;8.780;2024-01-15T12:58:42;85.93;;;80.43;;
36789;SDS011;22740;52.182;8.780;2024-01-15T13:04:44;85.93;;;79.78;;
36789;SDS011;22740;52.182;8.780;2024-01-15T13:10:46;91.22;;;85.30;;
36789;SDS011;22740;52.182;8.780;2024-01-15T13:16:48;94.03;;;87.82;;
36789;SDS011;22740;52.182;8.780;2024-01-15T13:22:50;96.93;;;90.45;;
36789;SDS011;22740;52.182;8.780;2024-01-15T13:28:53;113.53;;;105.75;;
36789;SDS011;22740;52.182;8.780;2024-01-15T13:34:59;103.63;;;96.68;;
36789;SDS011;22740;52.182;8.780;2024-01-15T13:41:02;105.28;;;97.53;;
36789;SDS011;22740;52.182;8.780;2024-01-15T13:47:04;96.57;;;89.97;;
36789;SDS011;22740;52.182;8.780;2024-01-15T13:53:06;98.22;;;91.70;;
36789;SDS011;22740;52.182;8.780;2024-01-15T13:59:10;114.10;;;106.32;;
36789;SDS011;22740;52.182;8.780;2024-01-15T14:05:12;109.25;;;102.05;;
36789;SDS011;22740;52.182;8.780;2024-01-15T14:11:15;108.18;;;100.82;;
36789;SDS011;22740;52.182;8.780;2024-01-15T14:17:17;106.97;;;99.75;;
36789;SDS011;22740;52.182;8.780;2024-01-15T14:23:19;122.05;;;113.75;;
36789;SDS011;22740;52.182;8.780;2024-01-15T14:29:22;124.15;;;116.05;;
36789;SDS011;22740;52.182;8.780;2024-01-15T14:35:26;137.93;;;128.63;;
36789;SDS011;22740;52.182;8.780;2024-01-15T14:41:28;128.57;;;120.28;;
36789;SDS011;22740;52.182;8.780;2024-01-15T14:47:31;128.35;;;120.20;;
36789;SDS011;22740;52.182;8.780;2024-01-15T14:53:33;133.63;;;124.63;;
36789;SDS011;22740;52.182;8.780;2024-01-15T14:59:35;142.30;;;133.15;;
36789;SDS011;22740;52.182;8.780;2024-01-15T15:05:36;149.45;;;139.55;;
36789;SDS011;22740;52.182;8.780;2024-01-15T15:11:38;144.75;;;135.30;;
36789;SDS011;22740;52.182;8.780;2024-01-15T15:17:40;137.48;;;128.85;;
36789;SDS011;22740;52.182;8.780;2024-01-15T15:23:42;117.53;;;110.22;;
36789;SDS011;22740;52.182;8.780;2024-01-15T15:29:44;112.55;;;105.50;;
36789;SDS011;22740;52.182;8.780;2024-01-15T15:35:46;107.05;;;100.45;;
36789;SDS011;22740;52.182;8.780;2024-01-15T15:41:49;106.70;;;100.00;;
36789;SDS011;22740;52.182;8.780;2024-01-15T15:47:51;99.68;;;93.57;;
36789;SDS011;22740;52.182;8.780;2024-01-15T15:53:53;100.97;;;94.68;;
36789;SDS011;22740;52.182;8.780;2024-01-15T15:59:55;95.90;;;90.00;;
36789;SDS011;22740;52.182;8.780;2024-01-15T16:05:57;92.93;;;86.72;;
36789;SDS011;22740;52.182;8.780;2024-01-15T16:11:59;96.72;;;90.43;;
36789;SDS011;22740;52.182;8.780;2024-01-15T16:18:00;95.18;;;88.45;;
36789;SDS011;22740;52.182;8.780;2024-01-15T16:24:22;97.32;;;91.03;;
36789;SDS011;22740;52.182;8.780;2024-01-15T16:30:42;98.38;;;92.18;;
36789;SDS011;22740;52.182;8.780;2024-01-15T16:36:48;95.82;;;89.82;;
36789;SDS011;22740;52.182;8.780;2024-01-15T16:42:50;92.18;;;86.35;;
36789;SDS011;22740;52.182;8.780;2024-01-15T16:48:51;96.10;;;89.85;;
36789;SDS011;22740;52.182;8.780;2024-01-15T16:54:55;96.82;;;90.55;;
36789;SDS011;22740;52.182;8.780;2024-01-15T17:00:56;93.85;;;87.93;;
36789;SDS011;22740;52.182;8.780;2024-01-15T17:06:59;133.05;;;124.57;;
36789;SDS011;22740;52.182;8.780;2024-01-15T17:13:00;405.83;;;379.30;;
36789;SDS011;22740;52.182;8.780;2024-01-15T17:19:03;468.90;;;438.75;;
36789;SDS011;22740;52.182;8.780;2024-01-15T17:25:06;445.48;;;416.38;;
36789;SDS011;22740;52.182;8.780;2024-01-15T17:31:08;324.63;;;303.98;;
36789;SDS011;22740;52.182;8.780;2024-01-15T17:37:11;255.27;;;239.27;;
36789;SDS011;22740;52.182;8.780;2024-01-15T17:43:13;144.27;;;134.85;;
36789;SDS011;22740;52.182;8.780;2024-01-15T17:49:15;135.73;;;127.13;;
36789;SDS011;22740;52.182;8.780;2024-01-15T17:55:16;137.73;;;129.15;;
36789;SDS011;22740;52.182;8.780;2024-01-15T18:01:18;146.75;;;137.48;;
36789;SDS011;22740;52.182;8.780;2024-01-15T18:07:20;158.60;;;148.73;;
36789;SDS011;22740;52.182;8.780;2024-01-15T18:13:24;152.95;;;143.15;;
36789;SDS011;22740;52.182;8.780;2024-01-15T18:19:26;136.32;;;127.70;;
36789;SDS011;22740;52.182;8.780;2024-01-15T18:25:28;128.20;;;120.07;;
36789;SDS011;22740;52.182;8.780;2024-01-15T18:31:29;134.55;;;125.80;;
36789;SDS011;22740;52.182;8.780;2024-01-15T18:37:31;125.85;;;118.00;;
36789;SDS011;22740;52.182;8.780;2024-01-15T18:43:34;121.53;;;113.93;;
36789;SDS011;22740;52.182;8.780;2024-01-15T18:49:35;139.63;;;130.23;;
36789;SDS011;22740;52.182;8.780;2024-01-15T18:55:38;147.25;;;137.27;;
36789;SDS011;22740;52.182;8.780;2024-01-15T19:01:40;158.63;;;148.13;;
36789;SDS011;22740;52.182;8.780;2024-01-15T19:07:42;148.23;;;138.82;;
36789;SDS011;22740;52.182;8.780;2024-01-15T19:13:46;133.20;;;124.53;;
36789;SDS011;22740;52.182;8.780;2024-01-15T19:19:48;124.47;;;116.45;;
36789;SDS011;22740;52.182;8.780;2024-01-15T19:25:52;125.77;;;117.37;;
36789;SDS011;22740;52.182;8.780;2024-01-15T19:31:54;115.85;;;108.25;;
36789;SDS011;22740;52.182;8.780;2024-01-15T19:37:56;106.68;;;99.80;;
36789;SDS011;22740;52.182;8.780;2024-01-15T19:43:58;102.00;;;95.45;;
36789;SDS011;22740;52.182;8.780;2024-01-15T19:50:00;100.35;;;93.85;;
36789;SDS011;22740;52.182;8.780;2024-01-15T19:56:03;100.35;;;94.15;;
36789;SDS011;22740;52.182;8.780;2024-01-15T20:02:05;95.53;;;89.43;;
36789;SDS011;22740;52.182;8.780;2024-01-15T20:08:08;99.38;;;92.88;;
36789;SDS011;22740;52.182;8.780;2024-01-15T20:14:10;99.05;;;92.68;;
36789;SDS011;22740;52.182;8.780;2024-01-15T20:20:12;92.50;;;86.65;;
36789;SDS011;22740;52.182;8.780;2024-01-15T20:26:14;97.63;;;91.40;;
36789;SDS011;22740;52.182;8.780;2024-01-15T20:32:16;91.75;;;86.05;;
36789;SDS011;22740;52.182;8.780;2024-01-15T20:38:20;101.70;;;95.20;;
36789;SDS011;22740;52.182;8.780;2024-01-15T20:44:22;96.57;;;90.57;;
36789;SDS011;22740;52.182;8.780;2024-01-15T20:50:26;96.65;;;90.43;;
36789;SDS011;22740;52.182;8.780;2024-01-15T20:56:27;97.75;;;91.80;;
36789;SDS011;22740;52.182;8.780;2024-01-15T21:02:29;96.80;;;90.85;;
36789;SDS011;22740;52.182;8.780;2024-01-15T21:08:31;97.63;;;91.43;;
36789;SDS011;22740;52.182;8.780;2024-01-15T21:14:33;93.30;;;87.65;;
36789;SDS011;22740;52.182;8.780;2024-01-15T21:20:37;93.18;;;87.45;;
36789;SDS011;22740;52.182;8.780;2024-01-15T21:26:39;90.18;;;84.32;;
36789;SDS011;22740;52.182;8.780;2024-01-15T21:32:42;115.70;;;108.13;;
36789;SDS011;22740;52.182;8.780;2024-01-15T21:38:44;108.72;;;101.63;;
36789;SDS011;22740;52.182;8.780;2024-01-15T21:44:46;113.45;;;106.22;;
36789;SDS011;22740;52.182;8.780;2024-01-15T21:50:48;95.18;;;88.72;;
36789;SDS011;22740;52.182;8.780;2024-01-15T21:56:50;95.93;;;89.72;;
36789;SDS011;22740;52.182;8.780;2024-01-15T22:02:51;108.82;;;101.68;;
36789;SDS011;22740;52.182;8.780;2024-01-15T22:08:53;110.85;;;103.93;;
36789;SDS011;22740;52.182;8.780;2024-01-15T22:14:55;106.68;;;99.90;;
36789;SDS011;22740;52.182;8.780;2024-01-15T22:21:00;100.88;;;94.18;;
36789;SDS011;22740;52.182;8.780;2024-01-15T22:27:02;104.43;;;97.72;;
36789;SDS011;22740;52.182;8.780;2024-01-15T22:33:08;102.30;;;95.72;;
36789;SDS011;22740;52.182;8.780;2024-01-15T22:39:12;106.55;;;99.57;;
36789;SDS011;22740;52.182;8.780;2024-01-15T22:45:15;106.78;;;99.68;;
36789;SDS011;22740;52.182;8.780;2024-01-15T22:51:18;113.50;;;106.10;;
36789;SDS011;22740;52.182;8.780;2024-01-15T22:57:20;107.55;;;100.75;;
36789;SDS011;22740;52.182;8.780;2024-01-15T23:03:22;116.97;;;109.55;;
36789;SDS011;22740;52.182;8.780;2024-01-15T23:09:24;112.13;;;105.07;;
36789;SDS011;22740;52.182;8.780;2024-01-15T23:15:26;114.57;;;107.47;;
36789;SDS011;22740;52.182;8.780;2024-01-15T23:21:30;105.47;;;98.57;;
36789;SDS011;22740;52.182;8.780;2024-01-15T23:27:31;111.50;;;104.50;;
36789;SDS011;22740;52.182;8.780;2024-01-15T23:33:34;123.05;;;115.35;;
36789;SDS011;22740;52.182;8.780;2024-01-15T23:39:36;120.00;;;112.53;;
36789;SDS011;22740;52.182;8.780;2024-01-15T23:45:39;113.30;;;106.20;;
36789;SDS011;22740;52.182;8.780;2024-01-15T23:51:42;111.93;;;104.83;;
36789;SDS011;22740;52.182;8.780;2024-01-15T23:57:44;114.90;;;107.70;;
